HTMT

Mtwara Airport

Mtwara, Tanzania
METAR HTMT 092200Z 00000KT 9999 SCT019 FEW020CB 26/25 Q1012
Observed Flight Rules
Dec-9 @ 22:00 UTC (31 minutes ago) Visual Flight Rules
Visibility Clouds
10,000+ meters
  • Scattered at 1,900' AGL
  • Few at 2,000' AGL
Temperatures Readings
Current 26°C / 79°F
Dewpoint 25°C / 77°F
Humidity 94%
Altimeter 29.88" Hg
Pressure 1012 hPa
Elevation 113
METAR HTMT 092200Z 00000KT 9999 SCT019 FEW020CB 26/25 Q1012
Observed Flight Rules
Dec-9 @ 22:00 UTC
(31 minutes ago)
VFR
Clouds
  • Scattered at 1,900' AGL
  • Few at 2,000' AGL
Temperature Dewpoint
26°C / 79°F 25°C / 77°F
Humidity Altimeter Pressure
94% 29.88" Hg 1012 hPa